Airfield :
LOGIN :

Register | Disclaimer

   EN    FR    IT 

 










Legend :    VFR   Marginal VFR   IFR   Intensive IFR   Very Intensive IFR
Visi :
Ceiling :
>= 8 km
>= 3000ft
5 to 8 km
1000 to 3000 ft
1500m to 5 km
500 to 1000 ft
800 to 1500m
200 to 500 ft
< 800m
< 200 ft
Symbols :   Thunderstorms  Fog  Heavy snow  Heavy precipitations  Wind > 20 kt
SIGMETs :     Misc.  Thunderstorms  Icing  Turbulence  Mountain Waves  Volcanic Ashes







- Airport Elevation : 124 ft
- IATA code : RNS
- Download approach charts


LFRN - Rennes

CURRENT METAR :
  • 222000Z AUTO 20009KT 9999 FEW013 SCT230 15/14 Q1010 NOSIG

EXPIRED METARs :
  • 221930Z AUTO 20009KT 9999 FEW016/// SCT084/// BKN110/// ///TCU 16/13 Q1010 BECMG SCT040
  • 221900Z AUTO 20010KT 9999 RA ///TCU 16/13 Q1009 TEMPO 4000 SHRA BECMG SCT040
  • 221830Z AUTO 20009KT 9999 FEW023 BKN043 BKN098 16/13 Q1009 TEMPO 4000 SHRA BKN030TCU
  • 221800Z AUTO 20010KT CAVOK 16/13 Q1009 TEMPO 4000 SHRA BKN030TCU
  • 221730Z AUTO 21012KT 9999 FEW028 SCT088 17/13 Q1008 TEMPO 4000 SHRA BKN030TCU

TAF TAF LFRN
Valid from the 22 at 18:00 until the 23 at 18:00 UTC


221700Z 2218/2318 22012KT 9999 SCT040
PROB40
TEMPO 2218/2220 4000 SHRA BKN030TCU
BECMG 2301/2303 22005KT
TEMPO 2303/2307 3000 BR
BECMG 2307/2309 19010KT
PROB30
TEMPO 2312/2315 5000 RA
TEMPO 2315/2318 5000 RA
BECMG 2316/2318 BKN015
ATIS : +33 2 99 67 72 50
No reported NOTAMs for that airfield.



MET'MAP, your aeronautical weather chart ! - Copyright ORBIFLY December 2007 - Disclaimer

ORBIFLY MET'MAP TEAM :

Programming & Development : Alexandra Zaïnal
Concept & Development : Baudouin d'Aumeries
Co-Development & Prog : Marc-Olivier Méhu
Technical & hardware support : Manuel Goepfert

Contact : metmap@orbifly.com




SOURCES & CREDITS :

   NOAA